Time;durP1;ratioP1;P1;durP2;ratioP2;P2;SDS_P1;SDS_P2;PMS_P1;PMS_P2;Temp;Humidity;BMP_temperature;BMP_pressure;BME280_temperature;BME280_humidity;BME280_pressure;Samples;Min_cycle;Max_cycle;Signal;HPM_P1;HPM_P2
2022/11/07 00:00:01;;;;;;;38.90;21.80;;;;;;;12.07;66.57;99102.28;223890;1247;142464;-65
2022/11/07 00:05:32;;;;;;;40.50;22.40;;;;;;;12.05;66.51;99099.98;223706;1253;139753;-62
2022/11/07 00:10:35;;;;;;;40.00;24.40;;;;;;;12.00;66.47;99101.70;223081;1253;140674;-65
2022/11/07 00:15:37;;;;;;;36.50;20.90;;;;;;;12.01;66.73;99100.24;223183;1256;139721;-64
2022/11/07 00:20:41;;;;;;;37.60;22.90;;;;;;;11.95;66.64;99099.21;224002;1248;140227;-65
2022/11/07 00:25:43;;;;;;;42.50;24.40;;;;;;;11.88;66.76;99104.15;223977;1244;139899;-66
2022/11/07 00:30:46;;;;;;;44.50;25.40;;;;;;;11.94;66.97;99105.88;223295;1256;140678;-62
2022/11/07 00:35:49;;;;;;;40.40;24.20;;;;;;;12.00;66.92;99103.11;223261;1251;140244;-63
2022/11/07 00:41:00;;;;;;;50.00;25.70;;;;;;;12.10;67.02;99097.11;223184;1257;140329;-62
2022/11/07 00:46:05;;;;;;;40.80;24.70;;;;;;;12.12;66.91;99092.90;223113;1253;139624;-63
2022/11/07 00:51:14;;;;;;;36.40;22.60;;;;;;;12.07;66.53;99090.94;223200;1257;139789;-66
2022/11/07 00:56:20;;;;;;;35.60;22.70;;;;;;;11.98;66.64;99082.50;223338;1257;139554;-63
2022/11/07 01:01:26;;;;;;;36.70;23.00;;;;;;;11.88;66.54;99075.48;223281;1256;140858;-67
2022/11/07 01:06:32;;;;;;;37.10;23.30;;;;;;;11.81;66.59;99076.06;223102;1257;140099;-70
2022/11/07 01:11:36;;;;;;;45.70;25.00;;;;;;;11.83;66.65;99072.09;223123;1255;140483;-68
2022/11/07 01:16:40;;;;;;;38.70;24.10;;;;;;;11.87;66.70;99068.45;223963;1239;140115;-66
2022/11/07 01:21:44;;;;;;;34.50;21.70;;;;;;;11.90;66.83;99062.04;223845;1250;140429;-65
2022/11/07 01:26:47;;;;;;;32.50;21.40;;;;;;;11.91;66.84;99058.23;223260;1263;139815;-69
2022/11/07 01:31:50;;;;;;;29.50;19.00;;;;;;;11.87;66.50;99054.93;223150;1253;139657;-64
2022/11/07 01:36:53;;;;;;;29.10;17.90;;;;;;;11.81;66.45;99051.92;223322;1257;139350;-67
2022/11/07 01:41:56;;;;;;;26.80;17.60;;;;;;;11.78;66.50;99052.52;224018;1247;139834;-70
2022/11/07 01:47:00;;;;;;;31.70;19.90;;;;;;;11.71;66.68;99052.25;223972;1250;139793;-67
2022/11/07 01:52:08;;;;;;;35.40;21.40;;;;;;;11.69;66.65;99046.88;223336;1254;140483;-69
2022/11/07 01:57:32;;;;;;;33.70;20.60;;;;;;;11.71;66.71;99039.09;223525;1260;139811;-68
2022/11/07 02:02:36;;;;;;;39.10;24.00;;;;;;;11.71;66.82;99032.54;223442;1254;139526;-64
2022/11/07 02:07:40;;;;;;;35.00;23.10;;;;;;;11.67;66.66;99025.32;223296;1257;139405;-65
2022/11/07 02:12:43;;;;;;;28.00;19.30;;;;;;;11.65;66.72;99024.78;223257;1257;139701;-64
2022/11/07 02:17:47;;;;;;;28.80;18.10;;;;;;;11.60;66.58;99020.23;223155;1254;139706;-65
2022/11/07 02:22:50;;;;;;;25.80;16.80;;;;;;;11.54;66.62;99016.73;223264;1253;139459;-65
2022/11/07 02:27:57;;;;;;;26.00;15.60;;;;;;;11.49;66.88;99012.84;223416;1257;139819;-63
2022/11/07 02:33:01;;;;;;;28.30;16.80;;;;;;;11.46;66.68;99009.43;223362;1250;140213;-63
2022/11/07 02:38:12;;;;;;;24.20;15.40;;;;;;;11.49;66.98;99006.80;223298;1257;139807;-67
2022/11/07 02:43:19;;;;;;;28.10;17.10;;;;;;;11.49;66.86;99006.26;223350;1255;140007;-66
2022/11/07 02:48:27;;;;;;;26.40;16.50;;;;;;;11.45;66.95;99007.21;223279;1257;140491;-63
2022/11/07 02:53:30;;;;;;;29.60;17.10;;;;;;;11.40;66.88;99006.51;223300;1258;140206;-61
2022/11/07 02:58:34;;;;;;;25.00;16.20;;;;;;;11.34;66.91;99001.39;223114;1254;139865;-67
2022/11/07 03:03:40;;;;;;;29.70;18.00;;;;;;;11.31;67.10;98992.69;223830;1255;139998;-67
2022/11/07 03:08:43;;;;;;;29.10;17.60;;;;;;;11.27;67.10;98993.80;223576;1257;140206;-67
2022/11/07 03:13:47;;;;;;;31.80;18.80;;;;;;;11.27;67.14;98988.66;223314;1251;140205;-66
2022/11/07 03:18:50;;;;;;;27.40;16.70;;;;;;;11.31;67.18;98987.72;223164;1255;140474;-67
2022/11/07 03:23:53;;;;;;;26.90;16.40;;;;;;;11.33;67.17;98993.96;223760;1249;139605;-69
2022/11/07 03:28:58;;;;;;;24.90;15.50;;;;;;;11.31;67.15;98999.63;223177;1261;139735;-66
2022/11/07 03:34:01;;;;;;;22.20;15.30;;;;;;;11.29;67.36;99000.67;223738;1244;140610;-67
2022/11/07 03:39:04;;;;;;;24.50;15.00;;;;;;;11.23;67.08;98998.54;223755;1251;139256;-69
2022/11/07 03:44:07;;;;;;;22.00;15.30;;;;;;;11.19;67.41;98999.88;223255;1250;139671;-71
2022/11/07 03:49:10;;;;;;;24.00;16.10;;;;;;;11.16;67.46;99000.77;223616;1244;139799;-69
2022/11/07 03:54:13;;;;;;;43.20;31.90;;;;;;;11.16;67.36;99002.73;222973;1257;140767;-68
2022/11/07 03:59:16;;;;;;;40.70;27.20;;;;;;;11.24;67.58;98992.66;223766;1247;140644;-70
2022/11/07 04:04:20;;;;;;;22.50;15.70;;;;;;;11.34;67.72;98991.80;223125;1248;139584;-68
2022/11/07 04:09:22;;;;;;;24.30;15.20;;;;;;;11.35;67.42;98986.02;223478;1249;140775;-67
2022/11/07 04:19:49;;;;;;;71.80;50.10;;;;;;;11.28;67.46;98991.11;223954;1250;139700;-67
2022/11/07 04:24:52;;;;;;;21.30;14.70;;;;;;;11.28;67.45;98985.63;223920;1249;139955;-70
2022/11/07 04:29:55;;;;;;;17.70;13.00;;;;;;;11.24;67.51;98983.73;223279;1257;139531;-70
2022/11/07 04:34:58;;;;;;;19.60;12.70;;;;;;;11.25;67.32;98982.59;223795;1247;140776;-73
2022/11/07 04:40:02;;;;;;;17.00;12.30;;;;;;;11.29;67.43;98974.58;223863;1249;140187;-72
2022/11/07 04:45:06;;;;;;;18.20;12.70;;;;;;;11.32;67.41;98972.36;223339;1256;140608;-74
2022/11/07 04:50:12;;;;;;;133.30;95.20;;;;;;;11.35;67.46;98968.30;223129;1250;141571;-68
2022/11/07 04:55:19;;;;;;;20.40;14.60;;;;;;;11.39;67.55;98959.30;223955;1251;140256;-70
2022/11/07 05:00:22;;;;;;;19.60;13.30;;;;;;;11.39;67.34;98962.54;223155;1254;140842;-70
2022/11/07 05:05:25;;;;;;;18.00;12.30;;;;;;;11.35;67.30;98962.44;223087;1251;139682;-69
2022/11/07 05:10:28;;;;;;;17.70;12.10;;;;;;;11.33;67.27;98969.68;223852;1249;140000;-70
2022/11/07 05:15:32;;;;;;;13.60;10.50;;;;;;;11.33;67.28;98963.96;223315;1249;140925;-70
2022/11/07 05:20:37;;;;;;;16.50;10.00;;;;;;;11.37;67.30;98955.55;223553;1247;139978;-70
2022/11/07 05:25:51;;;;;;;18.40;12.90;;;;;;;11.44;67.42;98948.83;223216;1253;140425;-74
2022/11/07 05:31:03;;;;;;;18.70;12.90;;;;;;;11.45;67.29;98949.67;223259;1254;139700;-73
2022/11/07 05:36:08;;;;;;;19.00;12.30;;;;;;;11.44;67.31;98955.23;223415;1257;140357;-72
2022/11/07 05:41:13;;;;;;;16.70;12.50;;;;;;;11.40;67.34;98962.06;223163;1249;139839;-77
2022/11/07 05:46:16;;;;;;;18.70;13.30;;;;;;;11.37;67.30;98967.77;223204;1255;139788;-75
2022/11/07 05:51:20;;;;;;;19.40;13.40;;;;;;;11.34;67.23;98972.04;223532;1247;140376;-74
2022/11/07 05:56:23;;;;;;;19.50;13.60;;;;;;;11.36;67.32;98971.56;223255;1257;140400;-73
2022/11/07 06:01:35;;;;;;;19.70;14.10;;;;;;;11.44;67.30;98979.05;223117;1254;143243;-73
2022/11/07 06:06:53;;;;;;;20.80;14.40;;;;;;;11.47;67.41;98991.64;223857;1246;139827;-73
2022/11/07 06:11:56;;;;;;;22.50;14.40;;;;;;;11.49;67.09;99003.77;224100;1250;139613;-72
2022/11/07 06:16:59;;;;;;;21.60;14.40;;;;;;;11.51;67.40;99008.58;223398;1257;140098;-69
2022/11/07 06:22:02;;;;;;;19.30;12.90;;;;;;;11.52;67.24;99014.02;223325;1251;139623;-65
2022/11/07 06:27:05;;;;;;;20.20;14.10;;;;;;;11.50;67.34;99020.21;223415;1257;139880;-65
2022/11/07 06:32:08;;;;;;;21.90;13.60;;;;;;;11.49;67.17;99020.64;223840;1245;140862;-65
2022/11/07 06:37:11;;;;;;;20.20;13.10;;;;;;;11.56;67.36;99029.80;222491;1250;141490;-66
2022/11/07 06:42:14;;;;;;;18.30;12.60;;;;;;;11.66;67.36;99037.26;223204;1236;140282;-73
2022/11/07 06:47:17;;;;;;;21.00;13.00;;;;;;;11.76;67.51;99044.77;222471;1254;139909;-69
2022/11/07 06:52:20;;;;;;;20.20;13.70;;;;;;;11.82;67.11;99044.60;222347;1250;140033;-71
2022/11/07 06:57:26;;;;;;;21.40;14.80;;;;;;;11.84;67.23;99045.70;222593;1256;139810;-69
2022/11/07 07:02:31;;;;;;;22.50;14.10;;;;;;;11.85;67.19;99039.61;222434;1257;140474;-67
2022/11/07 07:07:54;;;;;;;20.40;13.70;;;;;;;11.88;67.08;99042.09;222466;1247;139151;-65
2022/11/07 07:12:59;;;;;;;27.40;15.10;;;;;;;11.92;67.17;99046.58;222495;1256;140538;-65
2022/11/07 07:18:03;;;;;;;21.80;14.40;;;;;;;12.00;67.13;99053.55;223241;1242;140340;-65
2022/11/07 07:23:06;;;;;;;21.80;14.40;;;;;;;12.08;67.02;99051.02;222533;1254;143285;-68
2022/11/07 07:28:09;;;;;;;22.00;14.00;;;;;;;12.13;66.88;99055.11;222409;1256;139831;-68
2022/11/07 07:33:12;;;;;;;21.30;14.30;;;;;;;12.18;66.92;99052.84;223190;1243;139829;-68
2022/11/07 07:38:16;;;;;;;27.90;16.50;;;;;;;12.21;66.83;99049.08;222560;1248;139586;-64
2022/11/07 07:43:19;;;;;;;21.90;14.60;;;;;;;12.25;66.88;99047.92;222530;1249;141263;-66
2022/11/07 07:48:29;;;;;;;21.60;14.50;;;;;;;12.25;66.62;99040.45;222456;1256;141011;-69
2022/11/07 07:53:34;;;;;;;20.30;14.70;;;;;;;12.25;66.93;99030.09;222503;1256;139701;-66
2022/11/07 07:58:37;;;;;;;25.20;14.80;;;;;;;12.31;66.75;99031.13;222443;1256;139683;-68
2022/11/07 08:03:41;;;;;;;24.70;15.90;;;;;;;12.43;66.88;99033.65;222367;1256;141030;-67
2022/11/07 08:09:04;;;;;;;26.70;15.70;;;;;;;12.59;66.71;99035.77;222537;1248;139874;-66
2022/11/07 08:14:07;;;;;;;21.40;14.20;;;;;;;12.71;66.62;99036.65;223239;1240;139605;-70
2022/11/07 08:19:14;;;;;;;22.20;12.30;;;;;;;12.80;66.42;99035.52;223126;1249;139694;-72
2022/11/07 08:24:17;;;;;;;21.30;14.50;;;;;;;12.87;66.05;99036.65;222356;1249;139484;-64
2022/11/07 08:29:21;;;;;;;24.10;14.80;;;;;;;12.93;65.93;99027.95;222603;1257;140910;-63
2022/11/07 08:34:24;;;;;;;29.90;15.60;;;;;;;12.98;65.75;99028.14;223283;1256;139444;-65
2022/11/07 08:39:27;;;;;;;18.50;12.50;;;;;;;13.05;65.75;99031.92;223375;1251;139820;-66
2022/11/07 08:44:33;;;;;;;25.00;14.00;;;;;;;13.11;65.65;99037.90;224065;1240;140056;-64
2022/11/07 08:49:36;;;;;;;20.30;12.30;;;;;;;13.21;65.65;99039.13;223241;1256;139602;-66
2022/11/07 08:54:39;;;;;;;22.80;12.50;;;;;;;13.27;64.94;99043.16;223136;1256;140116;-64
2022/11/07 08:59:43;;;;;;;21.60;13.80;;;;;;;13.39;64.75;99040.70;223949;1247;140345;-66
2022/11/07 09:04:46;;;;;;;25.00;14.00;;;;;;;13.52;64.49;99040.81;223244;1249;140391;-67
2022/11/07 09:09:49;;;;;;;20.40;12.40;;;;;;;13.61;64.55;99042.81;223919;1254;139632;-61
2022/11/07 09:14:52;;;;;;;17.20;11.20;;;;;;;13.66;63.92;99046.41;223948;1250;139774;-65
2022/11/07 09:19:55;;;;;;;30.00;20.50;;;;;;;13.67;63.85;99050.02;223062;1254;139946;-64
2022/11/07 09:24:58;;;;;;;26.30;12.80;;;;;;;13.69;63.88;99054.48;223129;1250;140641;-66
2022/11/07 09:30:03;;;;;;;22.70;11.90;;;;;;;13.74;63.64;99057.33;223903;1248;139827;-68
2022/11/07 09:35:06;;;;;;;19.20;12.60;;;;;;;13.80;63.21;99065.65;222324;1253;140327;-67
2022/11/07 09:40:26;;;;;;;18.20;12.20;;;;;;;13.87;63.41;99066.75;222343;1256;140554;-64
2022/11/07 09:45:32;;;;;;;19.50;12.30;;;;;;;13.94;62.94;99071.77;222573;1250;140514;-62
2022/11/07 09:50:41;;;;;;;20.70;11.70;;;;;;;14.01;62.94;99068.52;222257;1256;139950;-62
2022/11/07 09:55:51;;;;;;;19.80;12.10;;;;;;;14.03;62.57;99072.29;222432;1249;140297;-63
2022/11/07 10:01:01;;;;;;;19.30;11.80;;;;;;;14.05;62.27;99076.28;222370;1251;140274;-66
2022/11/07 10:06:31;;;;;;;16.20;10.60;;;;;;;14.12;62.40;99069.34;222382;1249;140518;-63
2022/11/07 10:11:45;;;;;;;18.30;11.70;;;;;;;14.18;62.01;99066.71;222363;1249;139850;-66
2022/11/07 10:17:03;;;;;;;13.20;9.30;;;;;;;14.25;62.12;99061.94;222365;1256;140572;-68
2022/11/07 10:22:06;;;;;;;13.40;9.20;;;;;;;14.25;61.48;99062.93;222426;1256;140336;-64
2022/11/07 10:27:10;;;;;;;16.50;8.90;;;;;;;14.25;61.18;99057.60;222424;1256;140796;-62
2022/11/07 10:32:46;;;;;;;11.90;6.20;;;;;;;14.26;60.86;99057.52;223129;1246;140462;-67
2022/11/07 10:37:53;;;;;;;;;;;;;;;14.23;60.10;99059.16;222356;1257;140396;-64
2022/11/07 10:42:57;;;;;;;12.60;5.40;;;;;;;14.26;59.80;99058.61;222473;1248;127048;-59
2022/11/07 10:48:03;;;;;;;11.10;4.50;;;;;;;14.27;59.28;99055.89;222381;1257;139803;-65
2022/11/07 10:53:17;;;;;;;7.80;4.50;;;;;;;14.21;58.48;99060.56;222466;1253;140747;-66
2022/11/07 10:58:21;;;;;;;9.30;4.60;;;;;;;14.15;58.17;99069.27;222430;1256;140266;-64
2022/11/07 11:03:29;;;;;;;8.90;3.90;;;;;;;14.12;58.26;99071.58;223242;1246;140699;-62
2022/11/07 11:08:48;;;;;;;7.10;3.70;;;;;;;14.09;58.08;99073.80;223257;1249;140124;-67
2022/11/07 11:14:24;;;;;;;6.30;3.20;;;;;;;14.05;57.38;99076.97;222369;1247;140523;-66
2022/11/07 11:19:47;;;;;;;8.20;3.10;;;;;;;14.04;57.44;99073.66;222387;1253;140037;-63
2022/11/07 11:25:20;;;;;;;6.00;2.90;;;;;;;14.05;57.14;99064.28;222477;1256;140493;-66
2022/11/07 11:30:24;;;;;;;5.70;3.40;;;;;;;14.04;56.79;99067.45;222434;1256;139366;-65
2022/11/07 11:35:44;;;;;;;5.60;3.00;;;;;;;14.05;56.90;99061.13;222459;1250;139871;-64
2022/11/07 11:40:54;;;;;;;5.80;3.00;;;;;;;14.08;56.58;99062.14;222459;1256;140377;-67
2022/11/07 11:46:19;;;;;;;11.20;2.80;;;;;;;14.12;56.43;99057.02;222443;1256;140694;-69
2022/11/07 11:51:49;;;;;;;4.00;2.50;;;;;;;14.17;56.21;99056.77;223247;1240;140296;-66
2022/11/07 11:57:03;;;;;;;8.60;2.80;;;;;;;14.30;55.80;99061.85;222575;1257;140083;-63
2022/11/07 12:02:37;;;;;;;7.20;2.60;;;;;;;14.42;55.54;99057.36;223265;1247;140430;-67
2022/11/07 12:07:52;;;;;;;6.60;2.70;;;;;;;14.51;55.61;99061.71;222455;1250;139082;-69
2022/11/07 12:13:19;;;;;;;4.40;2.70;;;;;;;14.58;55.11;99065.47;223189;1249;141308;-66
2022/11/07 12:18:51;;;;;;;6.70;2.90;;;;;;;14.60;54.93;99068.68;223054;1240;141024;-69
2022/11/07 12:24:13;;;;;;;5.10;2.90;;;;;;;14.52;54.52;99067.54;222352;1256;139879;-68
2022/11/07 12:29:31;;;;;;;7.10;3.10;;;;;;;14.45;54.28;99064.84;222447;1256;139655;-64
2022/11/07 12:34:53;;;;;;;11.90;3.00;;;;;;;14.45;54.56;99056.80;222306;1251;140363;-66
2022/11/07 12:40:11;;;;;;;6.80;3.10;;;;;;;14.44;54.25;99065.95;222502;1250;139776;-63
2022/11/07 12:45:35;;;;;;;7.00;2.90;;;;;;;14.41;54.31;99074.75;222625;1257;140716;-65
2022/11/07 12:50:52;;;;;;;4.80;2.70;;;;;;;14.43;54.36;99068.50;222262;1247;139749;-69
2022/11/07 12:56:12;;;;;;;3.60;2.50;;;;;;;14.50;54.57;99074.80;222464;1257;140201;-62
2022/11/07 13:01:22;;;;;;;7.00;2.60;;;;;;;14.54;54.42;99073.40;222547;1246;140497;-64
2022/11/07 13:06:44;;;;;;;4.80;2.50;;;;;;;14.58;54.18;99075.11;223151;1243;139940;-69
2022/11/07 13:12:05;;;;;;;6.40;3.10;;;;;;;14.57;54.19;99074.77;222407;1251;141204;-65
2022/11/07 13:17:29;;;;;;;7.60;2.60;;;;;;;14.61;54.16;99073.73;222447;1256;141847;-64
2022/11/07 13:22:37;;;;;;;4.70;2.60;;;;;;;14.70;54.20;99073.39;222353;1247;140198;-66
2022/11/07 13:27:45;;;;;;;4.70;2.60;;;;;;;14.76;54.10;99077.58;222476;1249;139242;-67
2022/11/07 13:32:50;;;;;;;7.90;3.00;;;;;;;14.83;54.04;99083.47;222575;1256;139851;-66
2022/11/07 13:38:16;;;;;;;9.90;2.80;;;;;;;14.85;53.82;99076.36;222379;1254;139521;-66
2022/11/07 13:43:45;;;;;;;7.30;3.50;;;;;;;14.83;53.68;99083.13;222537;1260;140939;-62
2022/11/07 13:48:53;;;;;;;6.40;2.90;;;;;;;14.72;53.81;99087.59;222406;1251;139630;-63
2022/11/07 13:54:27;;;;;;;5.40;2.70;;;;;;;14.67;53.84;99091.33;223120;1243;139542;-66
2022/11/07 13:59:51;;;;;;;5.60;3.00;;;;;;;14.66;53.92;99104.83;222453;1256;139573;-64
2022/11/07 14:05:14;;;;;;;6.00;2.80;;;;;;;14.61;53.85;99109.50;223216;1251;139599;-69
2022/11/07 14:10:22;;;;;;;6.80;3.50;;;;;;;14.54;53.80;99112.38;222442;1243;140832;-67
2022/11/07 14:15:25;;;;;;;5.80;2.70;;;;;;;14.48;53.97;99113.68;222588;1257;140667;-66
2022/11/07 14:20:29;;;;;;;6.30;2.80;;;;;;;14.44;54.00;99123.77;222519;1257;139426;-69
2022/11/07 14:25:34;;;;;;;7.30;3.20;;;;;;;14.38;54.01;99134.75;222456;1252;139607;-65
2022/11/07 14:30:40;;;;;;;4.40;2.70;;;;;;;14.34;53.95;99139.34;223220;1243;139354;-70
2022/11/07 14:35:45;;;;;;;7.00;3.30;;;;;;;14.27;53.86;99142.58;223126;1250;140491;-71
2022/11/07 14:40:50;;;;;;;5.10;2.90;;;;;;;14.23;53.85;99144.87;222426;1253;139298;-62
2022/11/07 14:46:05;;;;;;;8.10;3.30;;;;;;;14.14;54.06;99139.60;222504;1247;141366;-66
2022/11/07 14:51:20;;;;;;;4.10;2.70;;;;;;;14.11;54.14;99146.48;222588;1250;139726;-65
2022/11/07 14:56:29;;;;;;;2.80;2.40;;;;;;;14.09;54.04;99145.73;222365;1250;139409;-67
2022/11/07 15:01:33;;;;;;;5.70;2.90;;;;;;;14.03;54.24;99148.64;222770;1262;140027;-64
2022/11/07 15:06:42;;;;;;;7.30;3.00;;;;;;;14.01;54.26;99152.72;223138;1257;140218;-64
2022/11/07 15:11:57;;;;;;;6.80;3.30;;;;;;;13.99;54.49;99152.73;223792;1246;139932;-67
2022/11/07 15:17:05;;;;;;;7.20;3.50;;;;;;;13.94;54.20;99153.94;223978;1242;139492;-64
2022/11/07 15:22:25;;;;;;;7.50;3.40;;;;;;;13.90;54.23;99154.05;223288;1257;139509;-64
2022/11/07 15:27:39;;;;;;;8.90;3.40;;;;;;;13.85;54.70;99161.98;223288;1260;139777;-64
2022/11/07 15:32:42;;;;;;;6.60;3.30;;;;;;;13.81;54.56;99158.98;223062;1257;139314;-67
2022/11/07 15:37:56;;;;;;;6.70;3.60;;;;;;;13.79;54.65;99156.66;223675;1246;139903;-68
2022/11/07 15:42:59;;;;;;;5.60;2.80;;;;;;;13.80;54.77;99162.32;223889;1246;139950;-65
2022/11/07 15:48:04;;;;;;;7.40;3.20;;;;;;;13.77;54.71;99170.01;223152;1254;140361;-67
2022/11/07 15:53:14;;;;;;;7.10;3.50;;;;;;;13.74;54.62;99177.04;223094;1260;139415;-61
2022/11/07 15:58:21;;;;;;;7.80;3.20;;;;;;;13.72;54.96;99183.02;223150;1257;139867;-63
2022/11/07 16:03:26;;;;;;;8.00;3.60;;;;;;;13.66;54.64;99188.43;223249;1258;139970;-69
2022/11/07 16:08:29;;;;;;;8.90;3.70;;;;;;;13.63;54.80;99191.55;223100;1260;139182;-66
2022/11/07 16:13:32;;;;;;;8.30;3.30;;;;;;;13.62;54.65;99193.77;223171;1254;140347;-61
2022/11/07 16:18:40;;;;;;;6.00;3.90;;;;;;;13.57;54.94;99194.66;223123;1254;139480;-63
2022/11/07 16:23:46;;;;;;;9.20;3.90;;;;;;;13.51;54.77;99192.57;223791;1251;139549;-67
2022/11/07 16:28:49;;;;;;;8.80;3.70;;;;;;;13.47;54.91;99196.42;223094;1256;139197;-65
2022/11/07 16:33:52;;;;;;;6.00;3.70;;;;;;;13.44;55.15;99205.02;223087;1262;142434;-63
2022/11/07 16:38:55;;;;;;;6.80;3.90;;;;;;;13.41;55.35;99215.93;224053;1248;140206;-63
2022/11/07 16:43:58;;;;;;;10.30;4.20;;;;;;;13.37;55.25;99213.55;223243;1253;139475;-64
2022/11/07 16:49:11;;;;;;;11.30;4.60;;;;;;;13.33;55.31;99217.00;223981;1253;140484;-67
2022/11/07 16:54:14;;;;;;;13.80;5.00;;;;;;;13.28;55.04;99214.73;224054;1247;139843;-71
2022/11/07 16:59:21;;;;;;;6.50;4.20;;;;;;;13.24;55.49;99219.59;223134;1253;140105;-65
2022/11/07 17:04:24;;;;;;;8.00;4.80;;;;;;;13.22;55.24;99219.77;223243;1258;139610;-64
2022/11/07 17:09:27;;;;;;;9.40;5.70;;;;;;;13.13;55.35;99217.88;223294;1261;139219;-63
2022/11/07 17:14:30;;;;;;;10.00;4.90;;;;;;;13.05;55.21;99222.32;223189;1257;139518;-67
2022/11/07 17:19:33;;;;;;;8.00;4.60;;;;;;;12.99;55.67;99221.84;223207;1254;140712;-62
2022/11/07 17:24:36;;;;;;;10.10;5.10;;;;;;;12.94;55.57;99231.26;223263;1256;139098;-62
2022/11/07 17:29:39;;;;;;;8.10;4.40;;;;;;;12.91;55.86;99234.14;223184;1253;139602;-68
2022/11/07 17:34:42;;;;;;;11.50;5.80;;;;;;;12.90;55.75;99235.70;223165;1258;140548;-63
2022/11/07 17:39:47;;;;;;;14.50;5.80;;;;;;;12.86;56.12;99235.71;223254;1257;139420;-68
2022/11/07 17:44:49;;;;;;;108.60;70.60;;;;;;;12.82;56.03;99231.02;223097;1254;139475;-67
2022/11/07 17:49:52;;;;;;;13.10;7.50;;;;;;;12.86;56.18;99236.46;223164;1257;139737;-64
2022/11/07 17:54:58;;;;;;;13.40;6.50;;;;;;;12.83;56.38;99245.23;223052;1256;140013;-65
2022/11/07 18:00:13;;;;;;;12.40;6.20;;;;;;;12.74;56.10;99247.24;223908;1244;140174;-66
2022/11/07 18:05:19;;;;;;;10.00;5.60;;;;;;;12.66;56.38;99243.70;223239;1257;139900;-66
2022/11/07 18:10:22;;;;;;;20.10;6.40;;;;;;;12.57;56.33;99236.64;223199;1265;139418;-66
2022/11/07 18:15:25;;;;;;;11.50;6.70;;;;;;;12.52;56.52;99238.60;223283;1257;140407;-66
2022/11/07 18:20:28;;;;;;;11.10;6.80;;;;;;;12.52;56.35;99240.73;223842;1251;140106;-65
2022/11/07 18:25:31;;;;;;;10.60;5.50;;;;;;;12.51;56.45;99238.30;223254;1257;141102;-66
2022/11/07 18:30:35;;;;;;;11.00;6.60;;;;;;;12.49;56.63;99237.91;223133;1253;139449;-67
2022/11/07 18:35:39;;;;;;;11.00;6.80;;;;;;;12.45;56.57;99232.47;223910;1250;140369;-62
2022/11/07 18:40:42;;;;;;;11.90;7.20;;;;;;;12.44;56.69;99232.03;223355;1250;139529;-63
2022/11/07 18:45:47;;;;;;;13.60;7.60;;;;;;;12.41;56.79;99230.27;223254;1255;139757;-71
2022/11/07 18:50:51;;;;;;;11.40;6.70;;;;;;;12.37;56.83;99234.77;223931;1244;139819;-65
2022/11/07 18:55:57;;;;;;;14.10;7.80;;;;;;;12.30;56.79;99236.65;223107;1254;140274;-65
2022/11/07 19:01:06;;;;;;;31.80;20.40;;;;;;;12.22;57.04;99241.25;223825;1245;140694;-64
2022/11/07 19:06:15;;;;;;;16.70;8.80;;;;;;;12.20;57.13;99243.40;223204;1257;139241;-63
2022/11/07 19:11:28;;;;;;;14.90;8.50;;;;;;;12.17;57.04;99252.46;223263;1257;139700;-67
2022/11/07 19:16:31;;;;;;;14.70;8.50;;;;;;;12.15;57.39;99254.17;223815;1240;139477;-63
2022/11/07 19:21:34;;;;;;;13.50;8.40;;;;;;;12.14;57.29;99254.95;223257;1256;140790;-63
2022/11/07 19:26:42;;;;;;;14.90;8.10;;;;;;;12.13;57.24;99266.59;223855;1250;140700;-63
2022/11/07 19:31:45;;;;;;;14.50;8.90;;;;;;;12.06;57.26;99270.80;223977;1241;139536;-64
2022/11/07 19:36:47;;;;;;;17.90;9.70;;;;;;;12.00;57.41;99270.13;223103;1255;139921;-65
2022/11/07 19:41:54;;;;;;;18.00;9.80;;;;;;;11.96;57.51;99270.56;223180;1257;139499;-65
2022/11/07 19:46:57;;;;;;;19.30;9.30;;;;;;;11.88;57.43;99268.91;223264;1257;139755;-63
2022/11/07 19:52:00;;;;;;;23.60;9.00;;;;;;;11.75;57.47;99267.23;223923;1242;139680;-63
2022/11/07 19:57:03;;;;;;;16.60;9.00;;;;;;;11.60;57.62;99270.13;224067;1244;140517;-63
2022/11/07 20:02:08;;;;;;;18.00;10.10;;;;;;;11.45;57.65;99271.41;223194;1260;139647;-62
2022/11/07 20:07:31;;;;;;;20.70;9.90;;;;;;;11.32;58.11;99272.71;223246;1257;139793;-65
2022/11/07 20:12:34;;;;;;;20.50;10.50;;;;;;;11.23;58.29;99277.73;223931;1247;140092;-63
2022/11/07 20:17:38;;;;;;;101.10;66.00;;;;;;;11.18;58.67;99286.59;223222;1248;139476;-65
2022/11/07 20:22:46;;;;;;;22.10;13.10;;;;;;;11.29;58.90;99287.33;223201;1257;140677;-61
2022/11/07 20:27:49;;;;;;;22.50;13.30;;;;;;;11.42;59.16;99279.96;223955;1247;141507;-63
2022/11/07 20:32:52;;;;;;;151.80;94.30;;;;;;;11.47;58.97;99276.98;223841;1238;139841;-61
2022/11/07 20:37:55;;;;;;;24.80;12.40;;;;;;;11.45;58.79;99281.71;223268;1248;141184;-62
2022/11/07 20:43:00;;;;;;;18.80;11.60;;;;;;;11.33;58.55;99278.35;223260;1249;140245;-64
2022/11/07 20:48:03;;;;;;;89.70;54.00;;;;;;;11.20;58.72;99291.42;223225;1250;140389;-67
2022/11/07 20:53:07;;;;;;;44.40;26.60;;;;;;;11.12;58.87;99298.47;223120;1253;140064;-63
2022/11/07 20:58:10;;;;;;;25.50;13.20;;;;;;;11.05;58.95;99296.77;223272;1254;140102;-65
2022/11/07 21:03:13;;;;;;;25.00;13.00;;;;;;;10.91;58.94;99300.10;224066;1239;140136;-65
2022/11/07 21:08:17;;;;;;;23.00;12.70;;;;;;;10.79;59.07;99303.27;223219;1254;140664;-61
2022/11/07 21:13:21;;;;;;;18.10;12.00;;;;;;;10.69;59.23;99302.45;223062;1254;140034;-62
2022/11/07 21:18:24;;;;;;;21.00;12.30;;;;;;;10.62;59.61;99307.24;223800;1241;140278;-65
2022/11/07 21:23:27;;;;;;;20.60;12.30;;;;;;;10.63;59.81;99304.73;223865;1239;139544;-63
2022/11/07 21:28:30;;;;;;;23.50;14.50;;;;;;;10.62;60.03;99307.95;223153;1252;139958;-63
2022/11/07 21:33:33;;;;;;;23.80;14.20;;;;;;;10.59;60.05;99305.84;223160;1254;140621;-67
2022/11/07 21:38:36;;;;;;;23.20;13.90;;;;;;;10.56;59.88;99310.64;223182;1255;140988;-67
2022/11/07 21:43:40;;;;;;;22.60;12.60;;;;;;;10.57;59.87;99310.06;223248;1256;140668;-66
2022/11/07 21:48:44;;;;;;;19.30;13.70;;;;;;;10.56;59.99;99312.23;223817;1247;139715;-65
2022/11/07 21:53:48;;;;;;;24.90;14.00;;;;;;;10.51;60.03;99315.69;223081;1257;139851;-67
2022/11/07 21:58:54;;;;;;;31.00;16.30;;;;;;;10.46;59.96;99319.40;223769;1247;140644;-67
2022/11/07 22:03:57;;;;;;;22.90;15.00;;;;;;;10.39;60.06;99324.53;223177;1257;139773;-64
2022/11/07 22:09:14;;;;;;;24.70;15.40;;;;;;;10.30;60.27;99319.39;223380;1254;140827;-66
2022/11/07 22:14:20;;;;;;;22.50;14.50;;;;;;;10.21;60.17;99317.92;223222;1257;140202;-64
2022/11/07 22:19:24;;;;;;;22.00;14.50;;;;;;;10.14;60.35;99320.59;223058;1250;140692;-63
2022/11/07 22:24:27;;;;;;;22.90;12.90;;;;;;;10.08;60.59;99326.41;223036;1257;140244;-66
2022/11/07 22:29:30;;;;;;;24.30;14.80;;;;;;;9.99;60.60;99330.11;223182;1250;139778;-64
2022/11/07 22:34:33;;;;;;;23.80;13.70;;;;;;;9.93;60.55;99332.77;223283;1257;140580;-65
2022/11/07 22:39:36;;;;;;;24.70;12.90;;;;;;;9.85;60.70;99328.59;223289;1257;139072;-70
2022/11/07 22:44:39;;;;;;;28.80;14.10;;;;;;;9.77;60.73;99324.98;223238;1257;139423;-64
2022/11/07 22:49:42;;;;;;;27.70;13.10;;;;;;;9.74;60.95;99327.41;223180;1253;140392;-64
2022/11/07 22:54:45;;;;;;;24.20;13.60;;;;;;;9.73;60.83;99329.23;223168;1254;140214;-70
2022/11/07 22:59:48;;;;;;;20.70;13.40;;;;;;;9.71;61.00;99331.45;223285;1257;139353;-65
2022/11/07 23:04:51;;;;;;;26.20;15.10;;;;;;;9.66;60.92;99331.90;223099;1257;140791;-63
2022/11/07 23:09:54;;;;;;;27.20;14.70;;;;;;;9.61;60.96;99323.17;223221;1257;140112;-65
2022/11/07 23:15:04;;;;;;;26.80;15.90;;;;;;;9.56;61.03;99318.10;223526;1248;139646;-69